createdAt,value
2023-04-15T00:01:19.654Z,8.25
2023-04-15T00:03:54.616Z,8.17
2023-04-15T00:06:27.585Z,8.15
2023-04-15T00:09:00.906Z,8.01
2023-04-15T00:11:33.800Z,8.09
2023-04-15T00:14:07.420Z,8.03
2023-04-15T00:16:40.088Z,8.04
2023-04-15T00:19:13.159Z,8.07
2023-04-15T00:21:45.885Z,8.10
2023-04-15T00:24:18.396Z,8.23
2023-04-15T00:26:50.898Z,8.25
2023-04-15T00:29:23.495Z,8.12
2023-04-15T00:31:59.767Z,8.03
2023-04-15T00:34:32.433Z,8.07
2023-04-15T00:37:04.921Z,8.00
2023-04-15T00:39:37.466Z,7.93
2023-04-15T00:42:10.627Z,7.94
2023-04-15T00:44:43.159Z,7.92
2023-04-15T00:47:18.188Z,7.89
2023-04-15T00:49:51.053Z,7.92
2023-04-15T00:52:23.660Z,7.83
2023-04-15T00:54:56.177Z,7.74
2023-04-15T00:57:29.162Z,7.75
2023-04-15T01:00:02.591Z,7.74
2023-04-15T01:02:39.329Z,7.63
2023-04-15T01:05:12.109Z,7.74
2023-04-15T01:07:44.647Z,7.64
2023-04-15T01:10:17.449Z,7.58
2023-04-15T01:12:49.965Z,7.58
2023-04-15T01:15:23.005Z,7.59
2023-04-15T01:17:55.858Z,7.47
2023-04-15T01:20:29.712Z,7.44
2023-04-15T01:23:02.660Z,7.34
2023-04-15T01:25:35.517Z,7.27
2023-04-15T01:28:09.481Z,7.09
2023-04-15T01:30:42.198Z,7.25
2023-04-15T01:33:14.810Z,7.16
2023-04-15T01:35:47.807Z,7.02
2023-04-15T01:38:20.521Z,7.11
2023-04-15T01:40:53.276Z,7.14
2023-04-15T01:43:26.866Z,7.15
2023-04-15T01:45:59.353Z,7.07
2023-04-15T01:48:32.418Z,6.98
2023-04-15T01:51:05.070Z,7.09
2023-04-15T01:53:37.676Z,7.01
2023-04-15T01:56:10.280Z,6.95
2023-04-15T01:58:42.782Z,7.00
2023-04-15T02:01:16.874Z,6.97
2023-04-15T02:03:49.624Z,6.99
2023-04-15T02:06:22.264Z,6.87
2023-04-15T02:08:54.772Z,6.86
2023-04-15T02:11:27.277Z,6.77
2023-04-15T02:13:59.804Z,6.70
2023-04-15T02:16:33.703Z,6.71
2023-04-15T02:19:06.264Z,6.65
2023-04-15T02:21:38.851Z,6.63
2023-04-15T02:24:12.326Z,6.54
2023-04-15T02:26:44.985Z,6.61
2023-04-15T02:29:17.558Z,6.41
2023-04-15T02:31:50.190Z,6.51
2023-04-15T02:34:22.774Z,6.61
2023-04-15T02:36:57.203Z,6.61
2023-04-15T02:39:29.801Z,6.49
2023-04-15T02:42:02.714Z,6.44
2023-04-15T02:44:36.516Z,6.34
2023-04-15T02:47:09.092Z,6.28
2023-04-15T02:49:41.783Z,6.24
2023-04-15T02:52:14.399Z,6.23
2023-04-15T02:54:46.882Z,6.11
2023-04-15T02:57:19.405Z,6.11
2023-04-15T02:59:51.949Z,6.11
2023-04-15T03:02:24.738Z,6.03
2023-04-15T03:04:57.392Z,6.00
2023-04-15T03:07:31.042Z,6.02
2023-04-15T03:10:03.734Z,6.00
2023-04-15T03:12:36.234Z,5.99
2023-04-15T03:15:09.884Z,6.07
2023-04-15T03:17:42.639Z,6.03
2023-04-15T03:20:15.760Z,6.01
2023-04-15T03:22:48.377Z,5.95
2023-04-15T03:25:20.953Z,5.93
2023-04-15T03:27:53.419Z,5.90
2023-04-15T03:30:26.187Z,5.81
2023-04-15T03:32:58.755Z,5.72
2023-04-15T03:35:31.377Z,5.79
2023-04-15T03:38:03.942Z,5.80
2023-04-15T03:40:36.680Z,5.82
2023-04-15T03:43:09.284Z,5.64
2023-04-15T03:45:42.108Z,5.69
2023-04-15T03:48:17.241Z,5.64
2023-04-15T03:50:50.905Z,5.50
2023-04-15T03:53:23.553Z,5.59
2023-04-15T03:55:56.094Z,5.51
2023-04-15T03:58:28.643Z,5.47
2023-04-15T04:01:01.115Z,5.41
2023-04-15T04:03:33.843Z,5.27
2023-04-15T04:06:06.738Z,5.28
2023-04-15T04:08:39.201Z,5.16
2023-04-15T04:11:11.761Z,5.21
2023-04-15T04:13:44.315Z,5.19
2023-04-15T04:16:17.278Z,5.11
2023-04-15T04:18:50.310Z,5.12
2023-04-15T04:21:22.998Z,5.07
2023-04-15T04:23:56.788Z,5.04
2023-04-15T04:26:29.315Z,4.95
2023-04-15T04:29:02.063Z,4.86
2023-04-15T04:31:34.921Z,4.93
2023-04-15T04:34:07.786Z,4.79
2023-04-15T04:36:40.484Z,4.83
2023-04-15T04:39:13.068Z,4.80
2023-04-15T04:41:45.762Z,4.83
2023-04-15T04:44:18.593Z,4.93
2023-04-15T04:46:51.159Z,4.89
2023-04-15T04:49:23.702Z,4.71
2023-04-15T04:51:57.453Z,4.82
2023-04-15T04:54:31.199Z,4.91
2023-04-15T04:57:03.751Z,4.96
2023-04-15T04:59:36.594Z,4.95
2023-04-15T05:02:09.244Z,4.87
2023-04-15T05:04:41.792Z,4.98
2023-04-15T05:07:14.281Z,4.95
2023-04-15T05:09:47.392Z,4.96
2023-04-15T05:12:19.954Z,5.00
2023-04-15T05:14:52.523Z,4.98
2023-04-15T05:17:25.129Z,5.01
2023-04-15T05:19:57.614Z,5.20
2023-04-15T05:22:30.065Z,5.24
2023-04-15T05:25:02.688Z,5.16
2023-04-15T05:27:35.590Z,5.32
2023-04-15T05:30:08.927Z,5.29
2023-04-15T05:32:41.569Z,5.28
2023-04-15T05:35:14.277Z,5.39
2023-04-15T05:37:46.862Z,5.43
2023-04-15T05:40:20.082Z,5.55
2023-04-15T05:42:52.600Z,5.48
2023-04-15T05:45:25.106Z,5.42
2023-04-15T05:47:57.668Z,5.59
2023-04-15T05:50:30.484Z,5.44
2023-04-15T05:53:03.104Z,5.65
2023-04-15T05:55:35.624Z,5.58
2023-04-15T05:58:08.140Z,5.62
2023-04-15T06:00:40.730Z,5.73
2023-04-15T06:03:13.602Z,5.76
2023-04-15T06:05:46.179Z,5.74
2023-04-15T06:08:19.266Z,5.77
2023-04-15T06:10:51.784Z,5.93
2023-04-15T06:13:24.368Z,5.96
2023-04-15T06:15:56.863Z,6.08
2023-04-15T06:18:29.443Z,6.12
2023-04-15T06:21:02.024Z,6.11
2023-04-15T06:23:41.105Z,6.18
2023-04-15T06:26:13.694Z,6.42
2023-04-15T06:28:46.214Z,6.53
2023-04-15T06:31:18.783Z,6.64
2023-04-15T06:33:51.338Z,6.71
2023-04-15T06:36:23.844Z,6.81
2023-04-15T06:38:56.992Z,6.81
2023-04-15T06:41:29.698Z,7.03
2023-04-15T06:44:02.555Z,7.09
2023-04-15T06:46:35.162Z,7.10
2023-04-15T06:49:08.113Z,7.18
2023-04-15T06:51:42.759Z,7.15
2023-04-15T06:54:16.299Z,7.36
2023-04-15T06:56:49.015Z,7.42
2023-04-15T06:59:21.577Z,7.54
2023-04-15T07:01:54.249Z,7.43
2023-04-15T07:04:27.828Z,7.73
2023-04-15T07:07:00.708Z,7.76
2023-04-15T07:09:34.204Z,8.03
2023-04-15T07:12:06.730Z,7.84
2023-04-15T07:14:39.271Z,8.02
2023-04-15T07:17:12.285Z,8.04
2023-04-15T07:19:44.816Z,8.16
2023-04-15T07:22:17.319Z,8.37
2023-04-15T07:24:49.806Z,8.51
2023-04-15T07:27:22.404Z,8.60
2023-04-15T07:29:54.894Z,8.63
2023-04-15T07:32:27.421Z,8.77
2023-04-15T07:35:00.164Z,8.98
2023-04-15T07:37:33.537Z,9.16
2023-04-15T07:40:07.388Z,9.39
2023-04-15T07:42:41.438Z,9.34
2023-04-15T07:45:14.072Z,9.53
2023-04-15T07:47:46.976Z,9.56
2023-04-15T07:50:19.814Z,9.64
2023-04-15T07:52:52.898Z,9.85
2023-04-15T07:55:26.208Z,9.79
2023-04-15T07:58:00.414Z,10.01
2023-04-15T08:00:32.917Z,10.01
2023-04-15T08:03:05.899Z,10.26
2023-04-15T08:05:38.533Z,10.19
2023-04-15T08:08:11.062Z,10.14
2023-04-15T08:10:43.698Z,10.14
2023-04-15T08:13:16.719Z,10.27
2023-04-15T08:16:23.514Z,10.42
2023-04-15T08:18:57.789Z,10.45
2023-04-15T08:21:30.997Z,10.32
2023-04-15T08:24:03.884Z,10.49
2023-04-15T08:26:36.438Z,10.72
2023-04-15T08:29:09.332Z,10.75
2023-04-15T08:31:41.913Z,10.48
2023-04-15T08:34:15.714Z,10.93
2023-04-15T08:36:48.408Z,11.03
2023-04-15T08:39:20.954Z,11.05
2023-04-15T08:42:02.745Z,10.86
2023-04-15T08:44:36.862Z,11.21
2023-04-15T08:47:13.066Z,11.25
2023-04-15T08:49:46.708Z,11.41
2023-04-15T08:52:20.161Z,11.33
2023-04-15T08:54:58.487Z,11.12
2023-04-15T08:57:32.177Z,11.39
2023-04-15T09:00:06.050Z,11.34
2023-04-15T09:02:39.210Z,11.56
2023-04-15T09:05:12.248Z,11.58
2023-04-15T09:07:44.970Z,11.55
2023-04-15T09:10:17.921Z,11.93
2023-04-15T09:12:50.465Z,11.82
2023-04-15T09:15:27.383Z,11.87
2023-04-15T09:17:59.940Z,12.13
2023-04-15T09:20:42.315Z,11.97
2023-04-15T09:23:17.445Z,12.06
2023-04-15T09:25:50.475Z,11.75
2023-04-15T09:28:26.537Z,11.90
2023-04-15T09:31:01.238Z,11.78
2023-04-15T09:33:33.835Z,11.36
2023-04-15T09:36:06.845Z,11.95
2023-04-15T09:38:57.291Z,11.96
2023-04-15T09:41:29.845Z,11.78
2023-04-15T09:44:02.452Z,12.43
2023-04-15T09:46:45.453Z,12.25
2023-04-15T09:49:18.246Z,12.38
2023-04-15T09:52:01.712Z,12.27
2023-04-15T09:54:42.073Z,12.67
2023-04-15T09:57:14.581Z,12.64
2023-04-15T09:59:47.923Z,12.52
2023-04-15T10:02:23.473Z,12.40
2023-04-15T10:04:57.669Z,12.29
2023-04-15T10:07:30.795Z,12.26
2023-04-15T10:10:05.365Z,12.21
2023-04-15T10:12:41.458Z,12.55
2023-04-15T10:15:19.021Z,12.95
2023-04-15T10:17:56.360Z,12.65
2023-04-15T10:20:30.507Z,13.08
2023-04-15T10:23:03.678Z,12.95
2023-04-15T10:25:37.778Z,12.67
2023-04-15T10:28:11.331Z,12.76
2023-04-15T10:30:46.297Z,12.68
2023-04-15T10:33:23.827Z,12.78
2023-04-15T10:35:57.674Z,12.74
2023-04-15T10:38:42.681Z,12.95
2023-04-15T10:41:25.188Z,13.21
2023-04-15T10:44:04.656Z,12.89
2023-04-15T10:46:43.933Z,13.09
2023-04-15T10:49:25.396Z,12.91
2023-04-15T10:51:59.755Z,13.23
2023-04-15T10:54:33.680Z,13.22
2023-04-15T10:57:06.534Z,13.29
2023-04-15T11:00:00.008Z,13.17
2023-04-15T11:02:58.188Z,13.32
2023-04-15T11:05:43.165Z,13.39
2023-04-15T11:08:16.703Z,13.65
2023-04-15T11:10:51.325Z,13.69
2023-04-15T11:13:27.068Z,13.28
2023-04-15T11:16:01.638Z,13.41
2023-04-15T11:18:34.916Z,13.78
2023-04-15T11:21:09.469Z,13.97
2023-04-15T11:23:46.781Z,13.88
2023-04-15T11:26:19.502Z,13.85
2023-04-15T11:28:52.637Z,13.77
2023-04-15T11:31:28.675Z,13.42
2023-04-15T11:34:02.839Z,13.71
2023-04-15T11:36:35.458Z,13.60
2023-04-15T11:39:08.068Z,13.68
2023-04-15T11:41:43.270Z,14.08
2023-04-15T11:44:19.014Z,13.87
2023-04-15T11:46:51.538Z,14.02
2023-04-15T11:49:33.898Z,14.10
2023-04-15T11:52:12.802Z,13.77
2023-04-15T11:54:45.395Z,14.12
2023-04-15T11:57:18.209Z,14.00
2023-04-15T11:59:55.506Z,13.63
2023-04-15T12:02:32.407Z,13.82
2023-04-15T12:05:06.736Z,13.76
2023-04-15T12:08:00.652Z,14.05
2023-04-15T12:10:33.217Z,13.98
2023-04-15T12:13:09.973Z,14.07
2023-04-15T12:15:43.607Z,13.69
2023-04-15T12:18:19.748Z,13.79
2023-04-15T12:20:52.306Z,13.89
2023-04-15T12:23:24.850Z,13.87
2023-04-15T12:25:57.555Z,13.70
2023-04-15T12:28:31.047Z,14.42
2023-04-15T12:31:11.103Z,14.31
2023-04-15T12:33:43.720Z,14.12
2023-04-15T12:36:18.133Z,14.94
2023-04-15T12:38:50.911Z,15.24
2023-04-15T12:41:24.436Z,14.42
2023-04-15T12:43:59.587Z,14.08
2023-04-15T12:46:32.594Z,13.96
2023-04-15T12:49:05.190Z,13.90
2023-04-15T12:51:37.732Z,13.69
2023-04-15T12:54:10.304Z,13.83
2023-04-15T12:56:43.411Z,14.49
2023-04-15T12:59:18.715Z,14.14
2023-04-15T13:01:53.345Z,14.54
2023-04-15T13:04:26.163Z,14.36
2023-04-15T13:06:58.941Z,14.42
2023-04-15T13:09:31.505Z,14.44
2023-04-15T13:12:05.404Z,14.37
2023-04-15T13:14:37.931Z,14.24
2023-04-15T13:17:11.442Z,14.68
2023-04-15T13:19:43.963Z,14.50
2023-04-15T13:22:16.467Z,14.42
2023-04-15T13:24:49.535Z,14.66
2023-04-15T13:27:22.383Z,14.48
2023-04-15T13:29:55.014Z,13.90
2023-04-15T13:32:27.574Z,14.71
2023-04-15T13:35:00.184Z,14.88
2023-04-15T13:37:32.782Z,14.94
2023-04-15T13:40:07.426Z,14.59
2023-04-15T13:42:39.985Z,14.40
2023-04-15T13:45:12.670Z,14.46
2023-04-15T13:47:45.301Z,14.20
2023-04-15T13:50:17.888Z,14.64
2023-04-15T13:52:50.757Z,14.54
2023-04-15T13:55:26.430Z,14.51
2023-04-15T13:58:02.350Z,14.01
2023-04-15T14:00:34.904Z,13.83
2023-04-15T14:03:07.832Z,14.03
2023-04-15T14:05:41.224Z,13.85
2023-04-15T14:08:17.221Z,13.90
2023-04-15T14:10:49.824Z,14.06
2023-04-15T14:13:28.802Z,14.31
2023-04-15T14:16:01.545Z,14.25
2023-04-15T14:18:34.156Z,14.42
2023-04-15T14:21:07.123Z,14.13
2023-04-15T14:23:42.355Z,14.35
2023-04-15T14:26:15.003Z,14.17
2023-04-15T14:28:48.578Z,13.50
2023-04-15T14:31:21.279Z,14.15
2023-04-15T14:33:53.990Z,14.49
2023-04-15T14:36:27.403Z,13.90
2023-04-15T14:39:06.909Z,13.90
2023-04-15T14:41:39.563Z,13.76
2023-04-15T14:44:12.160Z,14.33
2023-04-15T14:46:47.814Z,14.43
2023-04-15T14:49:20.475Z,14.34
2023-04-15T14:51:52.993Z,14.08
2023-04-15T14:54:25.733Z,13.91
2023-04-15T14:56:58.302Z,13.76
2023-04-15T14:59:30.996Z,13.63
2023-04-15T15:02:04.050Z,13.56
2023-04-15T15:04:37.010Z,13.94
2023-04-15T15:07:09.575Z,13.87
2023-04-15T15:09:43.294Z,14.07
2023-04-15T15:12:16.046Z,13.80
2023-04-15T15:14:48.714Z,13.70
2023-04-15T15:17:21.428Z,13.36
2023-04-15T15:19:53.949Z,13.57
2023-04-15T15:22:29.283Z,13.30
2023-04-15T15:25:04.407Z,13.43
2023-04-15T15:27:38.323Z,13.28
2023-04-15T15:30:12.598Z,13.10
2023-04-15T15:32:45.376Z,13.48
2023-04-15T15:35:18.132Z,13.50
2023-04-15T15:37:50.785Z,12.87
2023-04-15T15:40:25.834Z,13.02
2023-04-15T15:43:00.471Z,13.17
2023-04-15T15:45:33.161Z,12.80
2023-04-15T15:48:06.230Z,12.76
2023-04-15T15:50:39.052Z,13.12
2023-04-15T15:53:15.303Z,12.83
2023-04-15T15:55:48.408Z,12.72
2023-04-15T15:58:21.072Z,13.04
2023-04-15T16:00:53.732Z,12.79
2023-04-15T16:03:26.470Z,12.95
2023-04-15T16:06:00.658Z,12.76
2023-04-15T16:08:33.178Z,12.33
2023-04-15T16:11:05.745Z,11.96
2023-04-15T16:13:38.950Z,12.08
2023-04-15T16:16:11.657Z,11.98
2023-04-15T16:18:44.295Z,12.07
2023-04-15T16:21:16.895Z,12.03
2023-04-15T16:23:49.436Z,11.81
2023-04-15T16:26:22.252Z,11.75
2023-04-15T16:28:57.626Z,11.83
2023-04-15T16:31:30.549Z,11.58
2023-04-15T16:34:03.232Z,11.18
2023-04-15T16:36:36.154Z,11.61
2023-04-15T16:39:08.679Z,11.36
2023-04-15T16:41:43.945Z,11.46
2023-04-15T16:44:16.663Z,11.41
2023-04-15T16:46:49.238Z,11.28
2023-04-15T16:49:21.873Z,11.20
2023-04-15T16:51:54.802Z,11.33
2023-04-15T16:54:29.104Z,11.18
2023-04-15T16:57:02.560Z,10.96
2023-04-15T16:59:35.065Z,11.29
2023-04-15T17:02:13.662Z,11.22
2023-04-15T17:04:46.478Z,10.80
2023-04-15T17:07:18.981Z,10.68
2023-04-15T17:09:52.763Z,10.59
2023-04-15T17:12:27.009Z,10.52
2023-04-15T17:15:03.156Z,10.23
2023-04-15T17:17:35.824Z,10.48
2023-04-15T17:20:08.807Z,10.83
2023-04-15T17:22:41.564Z,10.54
2023-04-15T17:25:14.743Z,10.73
2023-04-15T17:27:47.236Z,10.49
2023-04-15T17:30:19.791Z,10.50
2023-04-15T17:32:52.375Z,10.49
2023-04-15T17:35:26.420Z,10.24
2023-04-15T17:37:59.137Z,9.94
2023-04-15T17:40:31.645Z,9.89
2023-04-15T17:43:04.366Z,10.19
2023-04-15T17:45:37.263Z,9.97
2023-04-15T17:48:10.489Z,10.06
2023-04-15T17:50:43.169Z,9.59
2023-04-15T17:53:16.911Z,9.54
2023-04-15T17:55:52.979Z,9.54
2023-04-15T17:58:28.715Z,9.63
2023-04-15T18:01:01.324Z,9.66
2023-04-15T18:03:33.996Z,9.79
2023-04-15T18:06:06.672Z,9.85
2023-04-15T18:08:39.285Z,9.58
2023-04-15T18:11:14.938Z,9.64
2023-04-15T18:13:47.399Z,9.77
2023-04-15T18:16:20.020Z,9.67
2023-04-15T18:18:52.737Z,9.49
2023-04-15T18:21:28.331Z,9.81
2023-04-15T18:24:00.915Z,9.74
2023-04-15T18:26:34.124Z,10.01
2023-04-15T18:29:07.082Z,9.74
2023-04-15T18:31:39.624Z,9.79
2023-04-15T18:34:12.758Z,9.96
2023-04-15T18:36:46.160Z,9.91
2023-04-15T18:39:18.701Z,10.09
2023-04-15T18:41:51.179Z,9.83
2023-04-15T18:44:23.707Z,9.73
2023-04-15T18:46:56.403Z,9.42
2023-04-15T18:49:30.158Z,9.83
2023-04-15T18:52:02.920Z,9.56
2023-04-15T18:54:36.661Z,9.60
2023-04-15T18:57:09.229Z,9.52
2023-04-15T18:59:42.654Z,9.48
2023-04-15T19:02:15.372Z,9.40
2023-04-15T19:04:47.931Z,9.26
2023-04-15T19:07:20.631Z,9.28
2023-04-15T19:09:55.289Z,8.79
2023-04-15T19:12:27.881Z,9.13
2023-04-15T19:15:00.743Z,9.03
2023-04-15T19:17:33.421Z,9.10
2023-04-15T19:20:06.798Z,9.10
2023-04-15T19:22:39.511Z,9.10
2023-04-15T19:25:12.477Z,8.86
2023-04-15T19:27:45.011Z,8.90
2023-04-15T19:30:17.578Z,8.76
2023-04-15T19:32:50.173Z,8.94
2023-04-15T19:35:22.732Z,8.75
2023-04-15T19:37:56.001Z,8.60
2023-04-15T19:40:28.590Z,8.53
2023-04-15T19:43:01.051Z,8.62
2023-04-15T19:45:34.315Z,8.75
2023-04-15T19:48:07.841Z,8.61
2023-04-15T19:50:43.544Z,8.45
2023-04-15T19:53:18.868Z,8.28
2023-04-15T19:55:51.365Z,8.44
2023-04-15T19:58:24.085Z,8.50
2023-04-15T20:00:58.138Z,8.47
2023-04-15T20:03:33.246Z,8.51
2023-04-15T20:06:05.901Z,8.49
2023-04-15T20:08:38.415Z,8.58
2023-04-15T20:11:12.219Z,8.61
2023-04-15T20:13:47.682Z,8.69
2023-04-15T20:16:20.558Z,8.61
2023-04-15T20:18:53.122Z,8.73
2023-04-15T20:21:25.807Z,8.62
2023-04-15T20:23:58.386Z,8.74
2023-04-15T20:26:31.397Z,8.50
2023-04-15T20:29:04.191Z,8.58
2023-04-15T20:31:37.326Z,8.37
2023-04-15T20:34:12.093Z,8.25
2023-04-15T20:36:44.770Z,8.41
2023-04-15T20:39:17.425Z,8.15
2023-04-15T20:41:50.660Z,8.34
2023-04-15T20:44:23.200Z,8.50
2023-04-15T20:46:56.105Z,8.69
2023-04-15T20:49:28.650Z,8.65
2023-04-15T20:52:02.247Z,8.42
2023-04-15T20:54:35.798Z,8.37
2023-04-15T20:57:08.304Z,8.61
2023-04-15T20:59:40.813Z,7.89
2023-04-15T21:02:13.437Z,8.10
2023-04-15T21:04:47.069Z,8.04
2023-04-15T21:07:19.612Z,7.81
2023-04-15T21:09:52.118Z,8.13
2023-04-15T21:12:24.651Z,8.15
2023-04-15T21:14:57.182Z,8.05
2023-04-15T21:17:29.761Z,8.08
2023-04-15T21:20:02.366Z,7.86
2023-04-15T21:22:34.931Z,7.89
2023-04-15T21:25:08.083Z,7.78
2023-04-15T21:27:40.660Z,7.97
2023-04-15T21:30:13.416Z,8.06
2023-04-15T21:32:45.993Z,7.76
2023-04-15T21:35:18.619Z,7.93
2023-04-15T21:37:51.134Z,7.77
2023-04-15T21:40:23.702Z,7.62
2023-04-15T21:42:56.272Z,7.77
2023-04-15T21:45:29.391Z,7.98
2023-04-15T21:48:08.010Z,7.75
2023-04-15T21:50:41.140Z,7.62
2023-04-15T21:53:13.680Z,7.85
2023-04-15T21:55:46.210Z,7.53
2023-04-15T21:58:18.720Z,7.45
2023-04-15T22:00:52.813Z,7.47
2023-04-15T22:03:28.824Z,7.40
2023-04-15T22:06:05.315Z,7.34
2023-04-15T22:08:48.376Z,7.06
2023-04-15T22:11:30.256Z,7.44
2023-04-15T22:14:02.871Z,7.05
2023-04-15T22:16:35.512Z,7.29
2023-04-15T22:19:08.184Z,7.27
2023-04-15T22:21:41.270Z,7.58
2023-04-15T22:24:38.141Z,7.28
2023-04-15T22:27:06.540Z,7.22
2023-04-15T22:29:39.057Z,7.15
2023-04-15T22:32:11.569Z,7.30
2023-04-15T22:34:44.129Z,7.31
2023-04-15T22:37:16.606Z,7.19
2023-04-15T22:39:51.937Z,7.42
2023-04-15T22:42:24.999Z,7.29
2023-04-15T22:44:57.567Z,7.09
2023-04-15T22:47:30.220Z,7.07
2023-04-15T22:50:02.804Z,7.13
2023-04-15T22:52:35.371Z,7.18
2023-04-15T22:55:08.737Z,7.25
2023-04-15T22:57:41.353Z,7.18
2023-04-15T23:00:14.125Z,7.32
2023-04-15T23:02:46.752Z,7.27
2023-04-15T23:05:19.492Z,7.03
2023-04-15T23:07:52.054Z,7.00
2023-04-15T23:10:24.558Z,7.09
2023-04-15T23:12:57.087Z,7.19
2023-04-15T23:15:29.689Z,7.26
2023-04-15T23:18:02.484Z,6.90
2023-04-15T23:20:36.123Z,7.10
2023-04-15T23:23:08.683Z,7.14
2023-04-15T23:25:42.084Z,6.69
2023-04-15T23:28:14.702Z,6.80
2023-04-15T23:30:47.403Z,6.75
2023-04-15T23:33:19.898Z,6.74
2023-04-15T23:35:52.503Z,6.66
2023-04-15T23:38:24.986Z,6.91
2023-04-15T23:40:57.528Z,6.77
2023-04-15T23:43:30.234Z,6.62
2023-04-15T23:46:02.783Z,6.81
2023-04-15T23:48:35.338Z,6.89
2023-04-15T23:51:08.153Z,6.90
2023-04-15T23:53:40.732Z,6.59
2023-04-15T23:56:13.276Z,6.92
2023-04-15T23:58:45.851Z,7.15
